createdAt,value
2022-11-10T00:00:13.104Z,76.17
2022-11-10T00:03:04.455Z,77.33
2022-11-10T00:05:51.891Z,73.70
2022-11-10T00:08:39.634Z,72.40
2022-11-10T00:11:27.091Z,77.20
2022-11-10T00:14:31.910Z,76.60
2022-11-10T00:17:19.390Z,75.10
2022-11-10T00:20:09.444Z,74.30
2022-11-10T00:22:57.346Z,76.03
2022-11-10T00:25:44.629Z,76.73
2022-11-10T00:28:33.383Z,76.83
2022-11-10T00:31:21.220Z,77.50
2022-11-10T00:34:13.584Z,75.70
2022-11-10T00:37:02.613Z,80.47
2022-11-10T00:39:50.396Z,77.77
2022-11-10T00:42:37.998Z,77.63
2022-11-10T00:45:25.317Z,82.17
2022-11-10T00:48:12.544Z,80.73
2022-11-10T00:50:59.980Z,80.87
2022-11-10T00:53:48.719Z,88.60
2022-11-10T00:56:36.252Z,83.57
2022-11-10T00:59:23.477Z,82.73
2022-11-10T01:02:10.829Z,79.27
2022-11-10T01:04:58.068Z,75.57
2022-11-10T01:07:45.374Z,73.90
2022-11-10T01:10:34.249Z,75.23
2022-11-10T01:13:21.883Z,67.77
2022-11-10T01:16:11.270Z,67.40
2022-11-10T01:19:00.397Z,64.60
2022-11-10T01:21:48.076Z,67.63
2022-11-10T01:24:35.494Z,68.03
2022-11-10T01:27:24.345Z,69.47
2022-11-10T01:30:12.992Z,65.10
2022-11-10T01:33:00.719Z,62.20
2022-11-10T01:35:48.087Z,63.03
2022-11-10T01:38:37.684Z,68.77
2022-11-10T01:41:25.690Z,74.70
2022-11-10T01:44:17.529Z,76.47
2022-11-10T01:47:04.943Z,68.70
2022-11-10T01:49:52.454Z,65.67
2022-11-10T01:52:40.837Z,69.67
2022-11-10T01:55:28.909Z,68.43
2022-11-10T01:58:19.082Z,73.40
2022-11-10T02:01:08.532Z,76.13
2022-11-10T02:04:00.360Z,70.97
2022-11-10T02:06:49.395Z,77.43
2022-11-10T02:09:36.888Z,71.67
2022-11-10T02:12:38.195Z,77.07
2022-11-10T02:15:25.715Z,70.30
2022-11-10T02:18:14.697Z,69.77
2022-11-10T02:21:05.938Z,67.23
2022-11-10T02:23:54.980Z,69.50
2022-11-10T02:26:46.973Z,69.83
2022-11-10T02:29:35.263Z,68.67
2022-11-10T02:32:22.744Z,59.93
2022-11-10T02:35:11.125Z,53.17
2022-11-10T02:37:59.822Z,54.23
2022-11-10T02:40:47.545Z,67.07
2022-11-10T02:43:35.222Z,67.33
2022-11-10T02:46:22.431Z,73.50
2022-11-10T02:49:09.661Z,77.03
2022-11-10T02:51:57.092Z,69.20
2022-11-10T02:54:45.720Z,75.60
2022-11-10T02:57:33.489Z,73.23
2022-11-10T03:00:21.761Z,68.30
2022-11-10T03:03:09.170Z,76.47
2022-11-10T03:05:56.406Z,76.27
2022-11-10T03:08:43.739Z,76.93
2022-11-10T03:11:32.783Z,67.37
2022-11-10T03:14:20.429Z,70.57
2022-11-10T03:17:07.542Z,70.20
2022-11-10T03:19:54.836Z,72.90
2022-11-10T03:22:42.026Z,67.87
2022-11-10T03:25:29.640Z,68.90
2022-11-10T03:28:18.549Z,72.73
2022-11-10T03:31:06.361Z,72.27
2022-11-10T03:33:53.679Z,67.40
2022-11-10T03:36:41.225Z,74.47
2022-11-10T03:39:28.819Z,75.87
2022-11-10T03:42:16.059Z,76.60
2022-11-10T03:45:05.284Z,68.77
2022-11-10T03:47:53.216Z,69.27
2022-11-10T03:50:40.710Z,76.53
2022-11-10T03:53:27.922Z,77.00
2022-11-10T03:56:15.463Z,75.77
2022-11-10T03:59:02.696Z,73.07
2022-11-10T04:01:51.663Z,70.80
2022-11-10T04:04:56.624Z,67.30
2022-11-10T04:08:01.349Z,68.37
2022-11-10T04:10:51.177Z,67.80
2022-11-10T04:13:55.867Z,66.07
2022-11-10T04:16:43.415Z,65.73
2022-11-10T04:19:33.116Z,63.63
2022-11-10T04:22:40.806Z,61.83
2022-11-10T04:25:28.585Z,59.73
2022-11-10T04:28:16.008Z,55.63
2022-11-10T04:31:03.283Z,55.83
2022-11-10T04:33:51.579Z,60.93
2022-11-10T04:36:43.280Z,58.33
2022-11-10T04:39:30.745Z,61.33
2022-11-10T04:42:18.337Z,58.97
2022-11-10T04:45:06.064Z,57.73
2022-11-10T04:47:53.445Z,56.67
2022-11-10T04:50:41.044Z,59.57
2022-11-10T04:53:29.939Z,59.67
2022-11-10T04:56:17.731Z,56.57
2022-11-10T04:59:05.227Z,55.37
2022-11-10T05:01:52.955Z,57.77
2022-11-10T05:04:40.187Z,57.53
2022-11-10T05:07:27.542Z,56.90
2022-11-10T05:10:17.743Z,56.80
2022-11-10T05:13:06.881Z,53.80
2022-11-10T05:15:54.229Z,54.60
2022-11-10T05:18:41.753Z,69.17
2022-11-10T05:21:29.312Z,76.40
2022-11-10T05:24:16.820Z,63.33
2022-11-10T05:27:05.456Z,72.87
2022-11-10T05:29:53.008Z,83.67
2022-11-10T05:32:40.326Z,94.10
2022-11-10T05:35:27.624Z,99.10
2022-11-10T05:38:14.789Z,116.17
2022-11-10T05:41:02.447Z,100.27
2022-11-10T05:43:51.097Z,94.23
2022-11-10T05:46:38.179Z,99.07
2022-11-10T05:49:27.325Z,93.90
2022-11-10T05:52:15.469Z,85.30
2022-11-10T05:55:02.877Z,84.60
2022-11-10T05:57:52.017Z,85.27
2022-11-10T06:00:41.121Z,114.10
2022-11-10T06:03:28.692Z,114.67
2022-11-10T06:06:15.873Z,101.97
2022-11-10T06:09:06.315Z,91.57
2022-11-10T06:11:53.380Z,82.27
2022-11-10T06:14:40.967Z,65.17
2022-11-10T06:17:29.767Z,65.27
2022-11-10T06:20:18.464Z,65.57
2022-11-10T06:23:08.045Z,64.10
2022-11-10T06:25:55.408Z,63.33
2022-11-10T06:28:42.354Z,62.47
2022-11-10T06:31:29.626Z,59.67
2022-11-10T06:34:18.293Z,62.43
2022-11-10T06:37:05.756Z,59.77
2022-11-10T06:39:53.436Z,59.63
2022-11-10T06:42:40.963Z,61.33
2022-11-10T06:45:29.396Z,63.80
2022-11-10T06:48:17.290Z,67.13
2022-11-10T06:51:05.975Z,62.07
2022-11-10T06:53:53.706Z,61.07
2022-11-10T06:56:40.797Z,58.67
2022-11-10T06:59:28.115Z,57.80
2022-11-10T07:02:16.681Z,54.93
2022-11-10T07:05:04.521Z,55.10
2022-11-10T07:07:53.370Z,54.03
2022-11-10T07:10:41.052Z,54.67
2022-11-10T07:13:28.520Z,54.83
2022-11-10T07:16:20.404Z,56.17
2022-11-10T07:19:10.743Z,55.43
2022-11-10T07:21:58.166Z,67.90
2022-11-10T07:24:46.849Z,70.80
2022-11-10T07:27:34.338Z,68.63
2022-11-10T07:30:21.838Z,59.17
2022-11-10T07:33:12.986Z,56.73
2022-11-10T07:36:04.411Z,59.93
2022-11-10T07:38:51.934Z,59.00
2022-11-10T07:41:40.529Z,59.50
2022-11-10T07:44:28.351Z,44.87
2022-11-10T07:47:16.982Z,47.83
2022-11-10T07:50:04.473Z,42.10
2022-11-10T07:52:51.747Z,36.70
2022-11-10T07:55:40.323Z,35.67
2022-11-10T11:03:05.105Z,16.13
2022-11-10T11:06:03.169Z,16.77
2022-11-10T11:08:59.648Z,17.80
2022-11-10T11:12:00.138Z,17.83
2022-11-10T11:14:48.238Z,25.40
2022-11-10T11:17:35.953Z,17.03
2022-11-10T11:20:30.897Z,16.50
2022-11-10T11:23:36.103Z,16.70
2022-11-10T11:26:37.183Z,21.90
2022-11-10T11:29:37.740Z,21.97
2022-11-10T11:33:00.812Z,19.33
2022-11-10T11:35:56.788Z,17.33
2022-11-10T11:38:57.766Z,17.63
2022-11-10T11:41:55.450Z,17.77
2022-11-10T11:45:00.193Z,17.43
2022-11-10T11:48:09.719Z,17.57
2022-11-10T11:51:06.738Z,17.40
2022-11-10T11:54:39.186Z,19.87
2022-11-10T11:57:40.518Z,19.03
2022-11-10T12:00:29.320Z,18.87
2022-11-10T12:03:33.517Z,19.77
2022-11-10T12:06:34.290Z,18.27
2022-11-10T12:09:32.650Z,17.37
2022-11-10T12:12:49.287Z,15.40
2022-11-10T12:15:48.684Z,17.00
2022-11-10T12:18:38.379Z,18.93
2022-11-10T12:21:35.930Z,18.30
2022-11-10T12:24:38.396Z,16.63
2022-11-10T12:27:30.057Z,16.43
2022-11-10T12:30:20.154Z,17.17
2022-11-10T12:33:17.306Z,18.37
2022-11-10T12:36:07.462Z,19.77
2022-11-10T12:39:00.457Z,20.27
2022-11-10T12:41:51.182Z,20.50
2022-11-10T12:44:44.920Z,20.03
2022-11-10T12:47:44.405Z,18.90
2022-11-10T12:50:42.714Z,22.03
2022-11-10T12:53:33.115Z,25.17
2022-11-10T12:56:26.339Z,31.47
2022-11-10T12:59:27.863Z,25.30
2022-11-10T13:02:28.806Z,24.40
2022-11-10T13:05:32.209Z,24.13
2022-11-10T13:08:28.829Z,30.93
2022-11-10T13:11:35.079Z,34.20
2022-11-10T13:14:26.133Z,45.40
2022-11-10T13:17:48.759Z,45.37
2022-11-10T13:20:52.879Z,41.53
2022-11-10T13:24:21.255Z,39.30
2022-11-10T13:27:14.847Z,32.87
2022-11-10T13:30:02.438Z,31.10
2022-11-10T13:32:49.793Z,29.70
2022-11-10T13:35:55.883Z,27.50
2022-11-10T13:38:44.561Z,29.17
2022-11-10T13:41:34.238Z,24.83
2022-11-10T13:44:26.826Z,23.53
2022-11-10T13:47:47.795Z,24.03
2022-11-10T13:50:52.711Z,22.77
2022-11-10T13:53:52.250Z,22.80
2022-11-10T13:57:07.146Z,23.93
2022-11-10T13:59:57.156Z,22.67
2022-11-10T14:02:54.119Z,23.53
2022-11-10T14:06:05.972Z,24.40
2022-11-10T14:08:57.735Z,25.30
2022-11-10T14:11:50.116Z,30.93
2022-11-10T14:14:49.237Z,35.30
2022-11-10T14:17:42.724Z,39.47
2022-11-10T14:20:36.668Z,32.13
2022-11-10T14:23:28.275Z,33.73
2022-11-10T14:26:26.045Z,32.47
2022-11-10T14:29:40.177Z,31.40
2022-11-10T14:32:28.099Z,28.57
2022-11-10T14:35:24.761Z,32.53
2022-11-10T14:38:21.591Z,41.10
2022-11-10T14:41:15.670Z,52.50
2022-11-10T14:44:06.690Z,54.30
2022-11-10T14:46:54.788Z,54.17
2022-11-10T14:49:44.069Z,53.73
2022-11-10T14:52:31.424Z,49.93
2022-11-10T14:55:22.068Z,59.07
2022-11-10T14:58:15.078Z,57.70
2022-11-10T15:01:05.697Z,53.40
2022-11-10T15:03:53.290Z,49.90
2022-11-10T15:06:46.708Z,44.53
2022-11-10T15:09:35.277Z,41.37
2022-11-10T15:12:27.695Z,41.50
2022-11-10T15:15:23.316Z,38.93
2022-11-10T15:18:27.443Z,47.50
2022-11-10T15:21:17.050Z,47.77
2022-11-10T15:24:08.245Z,52.57
2022-11-10T15:26:55.639Z,89.13
2022-11-10T15:29:43.110Z,85.57
2022-11-10T15:32:36.111Z,76.53
2022-11-10T15:35:31.803Z,77.43
2022-11-10T15:38:31.194Z,79.33
2022-11-10T15:41:27.760Z,75.77
2022-11-10T15:44:16.554Z,64.30
2022-11-10T15:47:04.166Z,45.33
2022-11-10T15:49:51.419Z,42.97
2022-11-10T15:52:40.812Z,40.27
2022-11-10T15:55:29.824Z,38.17
2022-11-10T15:58:20.756Z,35.40
2022-11-10T16:01:10.758Z,34.00
2022-11-10T16:03:58.684Z,32.27
2022-11-10T16:06:48.388Z,32.60
2022-11-10T16:09:37.728Z,31.60
2022-11-10T16:12:25.448Z,34.27
2022-11-10T16:15:19.681Z,34.60
2022-11-10T16:18:12.756Z,34.90
2022-11-10T16:21:00.625Z,37.53
2022-11-10T16:23:49.512Z,36.23
2022-11-10T16:26:38.745Z,35.40
2022-11-10T16:29:26.249Z,34.87
2022-11-10T16:32:14.044Z,36.87
2022-11-10T16:35:01.423Z,38.17
2022-11-10T16:37:49.080Z,38.10
2022-11-10T16:40:36.487Z,36.97
2022-11-10T16:43:25.594Z,37.27
2022-11-10T16:46:19.917Z,42.13
2022-11-10T16:49:16.612Z,41.07
2022-11-10T16:52:09.636Z,39.47
2022-11-10T16:54:56.912Z,38.43
2022-11-10T16:57:44.299Z,44.10
2022-11-10T17:00:33.580Z,41.00
2022-11-10T17:03:27.037Z,95.30
2022-11-10T17:06:15.605Z,71.07
2022-11-10T17:09:08.903Z,72.70
2022-11-10T17:11:57.571Z,108.73
2022-11-10T17:14:45.433Z,107.00
2022-11-10T17:17:37.097Z,104.50
2022-11-10T17:20:33.221Z,109.90
2022-11-10T17:23:24.751Z,90.57
2022-11-10T17:26:14.251Z,68.87
2022-11-10T17:29:02.160Z,71.97
2022-11-10T17:31:50.566Z,66.07
2022-11-10T17:34:39.672Z,60.73
2022-11-10T17:37:27.238Z,69.67
2022-11-10T17:40:20.427Z,80.27
2022-11-10T17:43:07.762Z,66.77
2022-11-10T17:45:55.341Z,63.43
2022-11-10T17:48:42.683Z,71.87
2022-11-10T17:51:34.772Z,67.70
2022-11-10T17:54:22.361Z,65.63
2022-11-10T17:57:11.537Z,65.20
2022-11-10T17:59:58.996Z,62.50
2022-11-10T18:02:52.535Z,59.67
2022-11-10T18:05:42.679Z,61.00
2022-11-10T18:08:31.379Z,60.23
2022-11-10T18:11:21.670Z,59.77
2022-11-10T18:14:10.583Z,60.43
2022-11-10T18:16:57.899Z,57.57
2022-11-10T18:19:45.290Z,56.07
2022-11-10T18:22:32.863Z,54.00
2022-11-10T18:25:22.066Z,53.50
2022-11-10T18:28:09.761Z,49.67
2022-11-10T18:31:00.034Z,47.27
2022-11-10T18:33:49.277Z,45.97
2022-11-10T18:36:36.939Z,47.07
2022-11-10T18:39:24.766Z,45.37
2022-11-10T18:42:13.609Z,46.07
2022-11-10T18:45:01.126Z,47.53
2022-11-10T18:47:48.471Z,45.50
2022-11-10T18:50:39.000Z,47.57
2022-11-10T18:53:26.999Z,47.40
2022-11-10T18:56:14.648Z,47.07
2022-11-10T18:59:03.951Z,47.63
2022-11-10T19:01:51.611Z,46.83
2022-11-10T19:04:38.883Z,46.80
2022-11-10T19:07:26.367Z,46.27
2022-11-10T19:10:13.988Z,48.33
2022-11-10T19:13:01.529Z,50.90
2022-11-10T19:15:50.416Z,49.93
2022-11-10T19:18:38.901Z,50.37
2022-11-10T19:21:27.985Z,50.23
2022-11-10T19:24:25.878Z,47.87
2022-11-10T19:27:15.273Z,48.73
2022-11-10T19:30:04.359Z,51.03
2022-11-10T19:32:53.393Z,51.97
2022-11-10T19:35:43.402Z,55.10
2022-11-10T19:38:31.081Z,51.70
2022-11-10T19:41:24.193Z,51.67
2022-11-10T19:44:11.943Z,51.77
2022-11-10T19:47:00.634Z,51.43
2022-11-10T19:49:51.542Z,52.73
2022-11-10T19:52:39.437Z,52.57
2022-11-10T19:55:26.951Z,55.23
2022-11-10T19:58:14.109Z,55.73
2022-11-10T20:01:02.261Z,62.60
2022-11-10T20:03:49.787Z,66.67
2022-11-10T20:06:38.673Z,67.63
2022-11-10T20:09:26.145Z,70.40
2022-11-10T20:12:13.796Z,61.30
2022-11-10T20:15:01.139Z,81.37
2022-11-10T20:17:48.685Z,102.10
2022-11-10T20:20:36.602Z,125.13
2022-11-10T20:23:25.494Z,110.83
2022-11-10T20:26:15.031Z,109.63
2022-11-10T20:29:02.203Z,111.23
2022-11-10T20:31:49.545Z,158.17
2022-11-10T20:34:36.835Z,130.30
2022-11-10T20:37:24.198Z,122.83
2022-11-10T20:40:42.406Z,104.00
2022-11-10T20:43:21.567Z,99.17
2022-11-10T20:46:18.993Z,109.17
2022-11-10T20:49:21.331Z,115.30
2022-11-10T20:52:09.009Z,113.43
2022-11-10T20:54:56.394Z,115.47
2022-11-10T20:57:45.306Z,117.33
2022-11-10T21:00:32.508Z,119.30
2022-11-10T21:03:19.990Z,111.13
2022-11-10T21:06:08.573Z,107.03
2022-11-10T21:08:57.190Z,101.57
2022-11-10T21:12:01.966Z,129.37
2022-11-10T21:14:51.123Z,128.77
2022-11-10T21:17:43.849Z,130.80
2022-11-10T21:20:33.680Z,134.13
2022-11-10T21:23:21.484Z,135.87
2022-11-10T21:26:09.467Z,136.43
2022-11-10T21:28:57.960Z,143.30
2022-11-10T21:31:47.001Z,139.83
2022-11-10T21:34:34.155Z,140.07
2022-11-10T21:37:21.428Z,141.77
2022-11-10T21:40:09.624Z,140.00
2022-11-10T21:42:57.282Z,143.70
2022-11-10T21:45:44.845Z,136.27
2022-11-10T21:48:34.142Z,138.63
2022-11-10T21:51:21.313Z,127.23
2022-11-10T21:54:10.675Z,126.33
2022-11-10T21:56:58.216Z,123.43
2022-11-10T21:59:45.529Z,119.73
2022-11-10T22:02:32.792Z,122.20
2022-11-10T22:05:21.799Z,122.10
2022-11-10T22:08:09.417Z,115.67
2022-11-10T22:11:13.910Z,110.80
2022-11-10T22:14:18.495Z,114.73
2022-11-10T22:17:29.351Z,125.93
2022-11-10T22:20:17.326Z,127.03
2022-11-10T22:23:06.401Z,129.57
2022-11-10T22:25:53.915Z,130.13
2022-11-10T22:28:41.668Z,134.93
2022-11-10T22:31:29.412Z,128.67
2022-11-10T22:34:16.907Z,119.17
2022-11-10T22:37:04.458Z,109.77
2022-11-10T22:40:10.620Z,106.30
2022-11-10T22:43:15.392Z,103.00
2022-11-10T22:46:03.132Z,95.37
2022-11-10T22:48:50.434Z,102.77
2022-11-10T22:51:38.964Z,101.67
2022-11-10T22:54:26.342Z,102.77
2022-11-10T22:57:15.310Z,105.80
2022-11-10T23:00:02.696Z,107.07
2022-11-10T23:02:50.191Z,106.13
2022-11-10T23:05:38.036Z,100.13
2022-11-10T23:08:25.780Z,96.33
2022-11-10T23:11:15.516Z,89.57
2022-11-10T23:14:04.429Z,86.33
2022-11-10T23:16:52.079Z,81.83
2022-11-10T23:19:39.346Z,81.33
2022-11-10T23:22:26.650Z,82.57
2022-11-10T23:25:14.767Z,79.73
2022-11-10T23:28:02.066Z,78.07
2022-11-10T23:30:51.028Z,75.27
2022-11-10T23:33:39.506Z,74.97
2022-11-10T23:36:28.804Z,69.43
2022-11-10T23:39:16.301Z,68.67
2022-11-10T23:42:03.612Z,70.53
2022-11-10T23:44:50.922Z,68.23
2022-11-10T23:47:39.853Z,65.60
2022-11-10T23:50:27.463Z,63.83
2022-11-10T23:53:15.740Z,62.77
2022-11-10T23:56:04.785Z,58.53
2022-11-10T23:58:52.436Z,59.23
